createdAt,value
2023-10-09T00:02:48.897Z,66.05
2023-10-09T00:05:53.951Z,66.05
2023-10-09T00:08:58.677Z,66.00
2023-10-09T00:12:00.922Z,65.95
2023-10-09T00:15:11.715Z,65.81
2023-10-09T00:18:13.536Z,65.62
2023-10-09T00:21:16.534Z,65.70
2023-10-09T00:24:26.978Z,65.78
2023-10-09T00:27:31.945Z,65.80
2023-10-09T00:30:33.753Z,65.97
2023-10-09T00:33:35.629Z,65.97
2023-10-09T00:36:50.550Z,66.04
2023-10-09T00:39:59.061Z,66.21
2023-10-09T00:43:06.771Z,66.20
2023-10-09T00:46:24.442Z,66.41
2023-10-09T00:49:27.927Z,66.36
2023-10-09T00:52:33.853Z,66.35
2023-10-09T00:55:44.602Z,66.34
2023-10-09T00:58:50.377Z,66.36
2023-10-09T01:02:05.504Z,66.30
2023-10-09T01:05:19.166Z,66.29
2023-10-09T01:08:40.029Z,66.42
2023-10-09T01:12:00.290Z,66.39
2023-10-09T01:15:02.543Z,66.48
2023-10-09T01:18:05.366Z,66.57
2023-10-09T01:21:07.477Z,66.45
2023-10-09T01:24:09.333Z,66.67
2023-10-09T01:27:17.493Z,66.86
2023-10-09T01:30:20.709Z,66.98
2023-10-09T01:33:27.191Z,67.12
2023-10-09T01:36:32.561Z,67.36
2023-10-09T01:39:40.475Z,67.51
2023-10-09T01:42:48.196Z,67.66
2023-10-09T01:45:52.534Z,67.74
2023-10-09T01:48:55.195Z,67.72
2023-10-09T01:52:04.229Z,67.91
2023-10-09T01:55:10.049Z,67.88
2023-10-09T01:58:32.405Z,67.84
2023-10-09T02:01:34.110Z,67.90
2023-10-09T02:04:35.794Z,67.99
2023-10-09T02:07:41.273Z,68.11
2023-10-09T02:10:48.772Z,68.14
2023-10-09T02:14:01.468Z,68.31
2023-10-09T02:17:03.155Z,68.41
2023-10-09T02:20:18.452Z,68.20
2023-10-09T02:23:24.716Z,68.23
2023-10-09T02:26:27.356Z,68.42
2023-10-09T02:29:35.538Z,68.62
2023-10-09T02:32:37.190Z,68.88
2023-10-09T02:35:39.328Z,68.91
2023-10-09T02:38:42.873Z,68.93
2023-10-09T02:41:51.066Z,68.98
2023-10-09T02:44:52.937Z,69.00
2023-10-09T02:47:56.247Z,69.02
2023-10-09T02:50:58.198Z,68.96
2023-10-09T02:54:22.987Z,69.06
2023-10-09T02:57:28.498Z,69.09
2023-10-09T03:00:31.800Z,69.05
2023-10-09T03:03:36.202Z,69.01
2023-10-09T03:06:40.831Z,68.97
2023-10-09T03:09:42.477Z,69.05
2023-10-09T03:12:44.891Z,69.01
2023-10-09T03:15:49.003Z,69.24
2023-10-09T03:18:53.063Z,69.22
2023-10-09T03:21:57.910Z,69.27
2023-10-09T03:24:59.490Z,69.47
2023-10-09T03:28:01.701Z,69.55
2023-10-09T03:31:03.401Z,69.36
2023-10-09T03:34:06.906Z,69.52
2023-10-09T03:37:21.640Z,69.65
2023-10-09T03:40:25.358Z,69.51
2023-10-09T03:43:32.807Z,69.43
2023-10-09T03:46:37.262Z,69.34
2023-10-09T03:49:39.879Z,69.31
2023-10-09T03:52:41.467Z,69.25
2023-10-09T03:55:43.126Z,69.34
2023-10-09T03:58:51.429Z,69.40
2023-10-09T04:01:53.734Z,69.32
2023-10-09T04:04:55.415Z,69.63
2023-10-09T04:07:59.245Z,69.53
2023-10-09T04:11:04.690Z,69.30
2023-10-09T04:14:12.479Z,69.51
2023-10-09T04:17:23.114Z,69.43
2023-10-09T04:20:24.771Z,69.33
2023-10-09T04:23:36.425Z,69.37
2023-10-09T04:26:44.900Z,69.33
2023-10-09T04:29:50.228Z,69.38
2023-10-09T04:32:55.799Z,69.42
2023-10-09T04:36:22.768Z,69.47
2023-10-09T04:39:30.740Z,69.36
2023-10-09T04:42:38.310Z,69.22
2023-10-09T04:45:45.942Z,69.15
2023-10-09T04:48:47.572Z,69.22
2023-10-09T04:52:05.035Z,69.20
2023-10-09T04:55:11.201Z,69.22
2023-10-09T04:58:24.440Z,69.29
2023-10-09T05:01:36.599Z,69.38
2023-10-09T05:04:38.321Z,69.37
2023-10-09T05:07:55.413Z,69.36
2023-10-09T05:10:58.852Z,69.52
2023-10-09T05:14:12.508Z,69.47
2023-10-09T05:17:17.213Z,69.56
2023-10-09T05:20:42.188Z,69.54
2023-10-09T05:23:52.712Z,69.65
2023-10-09T05:27:14.384Z,69.67
2023-10-09T05:30:25.574Z,69.72
2023-10-09T05:33:33.830Z,69.92
2023-10-09T05:36:35.925Z,70.12
2023-10-09T05:39:44.087Z,70.19
2023-10-09T05:42:57.985Z,70.07
2023-10-09T05:46:08.547Z,70.34
2023-10-09T05:49:20.119Z,70.34
2023-10-09T05:52:41.023Z,70.58
2023-10-09T05:56:01.044Z,70.59
2023-10-09T05:59:21.146Z,70.71
2023-10-09T06:02:48.738Z,70.66
2023-10-09T06:05:57.674Z,70.84
2023-10-09T06:09:15.944Z,70.97
2023-10-09T06:12:32.819Z,71.03
2023-10-09T06:15:44.078Z,71.26
2023-10-09T06:18:54.576Z,71.26
2023-10-09T06:22:04.103Z,71.38
2023-10-09T06:25:13.048Z,71.50
2023-10-09T06:28:14.654Z,71.72
2023-10-09T06:31:51.072Z,71.86
2023-10-09T06:34:57.381Z,71.83
2023-10-09T06:38:03.112Z,71.89
2023-10-09T06:41:04.917Z,71.88
2023-10-09T06:44:07.416Z,71.94
2023-10-09T06:47:10.426Z,72.16
2023-10-09T06:50:21.497Z,72.30
2023-10-09T06:53:41.254Z,72.44
2023-10-09T06:56:54.952Z,72.62
2023-10-09T07:00:15.190Z,72.86
2023-10-09T07:03:20.352Z,72.97
2023-10-09T07:06:25.102Z,72.95
2023-10-09T07:09:42.801Z,73.12
2023-10-09T07:12:44.831Z,73.30
2023-10-09T07:16:04.979Z,73.52
2023-10-09T07:19:25.113Z,73.70
2023-10-09T07:22:36.972Z,73.73
2023-10-09T07:25:41.563Z,73.84
2023-10-09T07:28:43.994Z,73.90
2023-10-09T07:34:53.797Z,74.13
2023-10-09T07:37:55.595Z,74.21
2023-10-09T07:41:20.539Z,74.33
2023-10-09T07:44:37.763Z,74.39
2023-10-09T07:47:58.154Z,74.61
2023-10-09T07:51:00.120Z,74.70
2023-10-09T07:54:08.839Z,74.66
2023-10-09T07:57:16.480Z,74.68
2023-10-09T08:00:36.889Z,74.81
2023-10-09T08:03:38.692Z,74.84
2023-10-09T08:07:04.196Z,74.96
2023-10-09T08:10:14.395Z,75.03
2023-10-09T08:13:51.708Z,75.07
2023-10-09T08:17:10.985Z,75.17
2023-10-09T08:20:13.158Z,75.23
2023-10-09T08:23:29.544Z,75.26
2023-10-09T08:26:47.653Z,75.45
2023-10-09T08:29:49.976Z,75.61
2023-10-09T08:36:09.079Z,75.68
2023-10-09T08:39:40.352Z,75.56
2023-10-09T08:42:43.319Z,75.75
2023-10-09T08:45:54.908Z,75.68
2023-10-09T08:48:59.924Z,75.64
2023-10-09T08:52:03.753Z,75.24
2023-10-09T08:55:06.350Z,75.06
2023-10-09T08:58:21.536Z,74.57
2023-10-09T09:01:25.152Z,74.31
2023-10-09T09:04:41.531Z,74.06
2023-10-09T09:07:43.464Z,74.21
2023-10-09T09:10:47.552Z,74.36
2023-10-09T09:14:12.957Z,74.30
2023-10-09T09:17:31.205Z,74.36
2023-10-09T09:20:40.632Z,74.41
2023-10-09T09:23:55.178Z,74.49
2023-10-09T09:27:10.084Z,74.61
2023-10-09T09:30:24.589Z,74.62
2023-10-09T09:33:31.211Z,74.65
2023-10-09T09:36:34.832Z,74.82
2023-10-09T09:39:49.290Z,74.92
2023-10-09T09:43:05.228Z,75.02
2023-10-09T09:46:08.697Z,75.02
2023-10-09T09:49:17.323Z,75.08
2023-10-09T09:52:19.753Z,75.07
2023-10-09T09:55:31.395Z,75.18
2023-10-09T09:58:44.381Z,75.31
2023-10-09T10:01:57.305Z,75.46
2023-10-09T10:05:03.817Z,75.52
2023-10-09T10:08:12.552Z,75.46
2023-10-09T10:11:52.400Z,75.45
2023-10-09T10:14:59.587Z,75.52
2023-10-09T10:18:01.359Z,75.58
2023-10-09T10:21:16.581Z,75.79
2023-10-09T10:24:35.987Z,75.92
2023-10-09T10:28:01.134Z,76.00
2023-10-09T10:31:04.871Z,76.00
2023-10-09T10:34:11.077Z,76.13
2023-10-09T10:37:13.843Z,76.23
2023-10-09T10:40:38.770Z,76.24
2023-10-09T10:43:53.422Z,76.29
2023-10-09T10:46:55.331Z,76.39
2023-10-09T10:50:00.213Z,76.38
2023-10-09T10:53:17.102Z,76.46
2023-10-09T10:56:19.445Z,76.63
2023-10-09T10:59:24.694Z,76.57
2023-10-09T11:02:28.650Z,76.50
2023-10-09T11:05:39.486Z,76.47
2023-10-09T11:09:09.275Z,76.54
2023-10-09T11:12:22.175Z,76.65
2023-10-09T11:15:47.954Z,76.69
2023-10-09T11:18:49.768Z,76.69
2023-10-09T11:21:59.148Z,76.60
2023-10-09T11:25:11.524Z,76.54
2023-10-09T11:28:48.383Z,76.62
2023-10-09T11:32:10.109Z,76.50
2023-10-09T11:35:21.191Z,76.40
2023-10-09T11:38:23.704Z,76.56
2023-10-09T11:41:26.883Z,76.67
2023-10-09T11:44:39.727Z,76.74
2023-10-09T11:47:54.749Z,76.62
2023-10-09T11:51:05.410Z,76.90
2023-10-09T11:54:09.190Z,77.09
2023-10-09T11:57:11.138Z,77.23
2023-10-09T12:00:25.154Z,77.30
2023-10-09T12:03:30.121Z,77.45
2023-10-09T12:06:32.795Z,77.40
2023-10-09T12:09:37.760Z,77.34
2023-10-09T12:12:40.384Z,77.38
2023-10-09T12:15:46.084Z,77.41
2023-10-09T12:18:53.509Z,77.56
2023-10-09T12:21:55.108Z,77.67
2023-10-09T12:24:57.828Z,77.78
2023-10-09T12:28:02.654Z,77.78
2023-10-09T12:31:04.365Z,77.90
2023-10-09T12:34:06.111Z,78.01
2023-10-09T12:37:07.891Z,78.04
2023-10-09T12:40:11.226Z,78.17
2023-10-09T12:43:20.249Z,78.17
2023-10-09T12:46:26.100Z,78.22
2023-10-09T12:49:27.761Z,78.35
2023-10-09T12:52:30.218Z,78.34
2023-10-09T12:55:35.639Z,78.36
2023-10-09T12:58:38.687Z,78.32
2023-10-09T13:01:45.495Z,78.33
2023-10-09T13:04:47.253Z,78.43
2023-10-09T13:07:49.206Z,78.55
2023-10-09T13:10:59.195Z,78.65
2023-10-09T13:14:12.152Z,79.78
2023-10-09T13:17:14.185Z,79.65
2023-10-09T13:20:16.702Z,79.21
2023-10-09T13:23:18.534Z,79.03
2023-10-09T13:26:36.498Z,78.96
2023-10-09T13:29:41.798Z,78.92
2023-10-09T13:32:49.024Z,78.89
2023-10-09T13:35:51.381Z,78.88
2023-10-09T13:38:56.988Z,78.78
2023-10-09T13:42:01.288Z,78.71
2023-10-09T13:45:16.181Z,78.73
2023-10-09T13:48:18.333Z,78.68
2023-10-09T13:51:24.352Z,78.78
2023-10-09T13:54:39.939Z,78.83
2023-10-09T13:57:45.909Z,78.83
2023-10-09T14:00:50.606Z,78.75
2023-10-09T14:03:54.085Z,78.81
2023-10-09T14:07:01.950Z,78.96
2023-10-09T14:10:26.324Z,79.01
2023-10-09T14:13:29.398Z,79.06
2023-10-09T14:16:33.669Z,78.98
2023-10-09T14:19:35.683Z,79.00
2023-10-09T14:22:38.839Z,78.99
2023-10-09T14:25:40.883Z,78.96
2023-10-09T14:28:43.413Z,78.98
2023-10-09T14:31:49.765Z,78.94
2023-10-09T14:34:51.845Z,79.00
2023-10-09T14:37:54.323Z,79.09
2023-10-09T14:40:59.705Z,79.16
2023-10-09T14:44:01.519Z,79.29
2023-10-09T14:47:06.040Z,79.32
2023-10-09T14:50:09.749Z,79.45
2023-10-09T14:53:13.572Z,79.56
2023-10-09T14:56:17.610Z,79.67
2023-10-09T14:59:19.929Z,79.81
2023-10-09T15:02:24.380Z,79.85
2023-10-09T15:05:26.079Z,79.89
2023-10-09T15:08:27.787Z,79.94
2023-10-09T15:11:29.475Z,79.94
2023-10-09T15:14:32.393Z,79.94
2023-10-09T15:17:33.996Z,79.90
2023-10-09T15:20:35.932Z,79.96
2023-10-09T15:23:38.039Z,80.04
2023-10-09T15:26:40.471Z,80.09
2023-10-09T15:29:45.020Z,80.14
2023-10-09T15:32:46.807Z,80.15
2023-10-09T15:35:50.170Z,80.17
2023-10-09T15:38:52.090Z,80.16
2023-10-09T15:41:54.011Z,80.21
2023-10-09T15:48:46.596Z,80.23
2023-10-09T15:51:54.420Z,80.28
2023-10-09T16:09:29.201Z,81.34
2023-10-09T16:12:32.019Z,81.19
2023-10-09T16:16:14.970Z,81.09
2023-10-09T16:19:16.814Z,81.02
2023-10-09T16:22:18.590Z,80.89
2023-10-09T16:25:24.633Z,80.84
2023-10-09T16:28:28.009Z,80.88
2023-10-09T16:31:45.053Z,81.00
2023-10-09T16:34:47.533Z,81.13
2023-10-09T16:37:56.152Z,81.17
2023-10-09T16:41:02.064Z,81.21
2023-10-09T16:44:05.627Z,81.20
2023-10-09T16:47:09.575Z,81.21
2023-10-09T16:50:22.786Z,81.21
2023-10-09T16:53:24.906Z,81.19
2023-10-09T16:56:33.781Z,81.17
2023-10-09T17:03:31.344Z,81.18
2023-10-09T17:06:35.229Z,81.22
2023-10-09T17:09:41.584Z,81.29
2023-10-09T17:12:46.913Z,81.31
2023-10-09T17:15:53.476Z,81.29
2023-10-09T17:18:57.215Z,81.25
2023-10-09T17:22:00.414Z,81.21
2023-10-09T17:25:03.537Z,81.25
2023-10-09T17:28:05.213Z,81.25
2023-10-09T17:35:32.036Z,81.29
2023-10-09T17:42:53.681Z,81.07
2023-10-09T17:45:55.415Z,80.95
2023-10-09T17:48:57.046Z,80.91
2023-10-09T17:52:01.125Z,80.94
2023-10-09T17:55:06.757Z,80.94
2023-10-09T17:58:08.456Z,80.93
2023-10-09T18:01:10.108Z,80.90
2023-10-09T18:04:14.335Z,80.84
2023-10-09T18:07:19.403Z,80.84
2023-10-09T18:10:22.288Z,80.85
2023-10-09T18:13:27.653Z,80.84
2023-10-09T18:16:29.977Z,80.87
2023-10-09T18:19:39.855Z,80.93
2023-10-09T18:22:56.308Z,80.94
2023-10-09T18:25:58.999Z,80.92
2023-10-09T18:29:28.967Z,80.91
2023-10-09T18:33:21.193Z,80.99
2023-10-09T18:36:23.223Z,80.97
2023-10-09T18:39:25.009Z,81.00
2023-10-09T18:42:29.283Z,81.00
2023-10-09T18:45:34.446Z,81.02
2023-10-09T18:48:36.123Z,81.07
2023-10-09T18:51:38.653Z,81.06
2023-10-09T18:54:41.739Z,81.06
2023-10-09T18:57:43.580Z,81.05
2023-10-09T19:04:53.767Z,81.04
2023-10-09T19:07:58.751Z,81.03
2023-10-09T19:11:02.209Z,80.98
2023-10-09T19:14:08.810Z,80.99
2023-10-09T19:17:12.098Z,81.01
2023-10-09T19:20:17.239Z,81.08
2023-10-09T19:29:12.411Z,81.15
2023-10-09T19:32:36.874Z,81.16
2023-10-09T19:35:47.598Z,81.19
2023-10-09T19:38:53.660Z,81.24
2023-10-09T19:42:49.053Z,81.28
2023-10-09T19:45:52.388Z,81.28
2023-10-09T19:48:56.382Z,81.23
2023-10-09T19:52:10.120Z,81.24
2023-10-09T19:55:13.482Z,81.23
2023-10-09T19:58:16.627Z,81.19
2023-10-09T20:13:40.210Z,80.93
2023-10-09T20:16:55.439Z,80.94
2023-10-09T20:19:58.964Z,81.01
2023-10-09T20:24:18.498Z,81.11
2023-10-09T20:27:53.399Z,81.25
2023-10-09T20:30:55.024Z,81.37
2023-10-09T20:34:20.841Z,81.40
2023-10-09T20:37:22.524Z,81.40
2023-10-09T20:44:44.155Z,81.38
2023-10-09T20:47:47.012Z,81.41
2023-10-09T20:50:49.096Z,81.46
2023-10-09T20:54:09.452Z,81.57
2023-10-09T20:57:11.056Z,81.68
2023-10-09T21:00:19.695Z,81.69
2023-10-09T21:03:30.651Z,81.70
2023-10-09T21:06:42.606Z,81.73
2023-10-09T21:09:50.552Z,81.75
2023-10-09T21:12:52.558Z,81.75
2023-10-09T21:15:54.424Z,81.75
2023-10-09T21:18:56.410Z,81.74
2023-10-09T21:21:59.938Z,81.74
2023-10-09T21:25:01.749Z,81.79
2023-10-09T21:28:03.621Z,81.82
2023-10-09T21:31:16.215Z,81.84
2023-10-09T21:36:27.869Z,82.15
2023-10-09T21:39:29.667Z,82.17
2023-10-09T21:42:31.478Z,82.11
2023-10-09T21:45:42.901Z,82.05
2023-10-09T21:48:44.577Z,81.99
2023-10-09T21:51:46.361Z,81.93
2023-10-09T21:54:48.066Z,81.89
2023-10-09T21:57:53.389Z,81.88
2023-10-09T22:00:57.259Z,81.87
2023-10-09T22:03:59.034Z,81.85
2023-10-09T22:07:00.819Z,81.82
2023-10-09T22:10:03.485Z,81.84
2023-10-09T22:13:08.288Z,81.87
2023-10-09T22:16:10.030Z,81.88
2023-10-09T22:19:14.684Z,81.86
2023-10-09T22:22:22.827Z,81.92
2023-10-09T22:25:25.884Z,82.00
2023-10-09T22:28:28.808Z,82.01
2023-10-09T22:31:30.507Z,82.01
2023-10-09T22:34:32.817Z,82.01
2023-10-09T22:37:37.829Z,81.99
2023-10-09T22:40:39.807Z,81.96
2023-10-09T22:43:41.502Z,81.89
2023-10-09T22:46:43.088Z,81.90
2023-10-09T22:49:52.928Z,81.92
2023-10-09T22:52:54.598Z,81.97
2023-10-09T22:55:56.293Z,82.03
2023-10-09T22:58:59.393Z,82.03
2023-10-09T23:02:01.404Z,82.05
2023-10-09T23:05:06.151Z,82.06
2023-10-09T23:08:17.066Z,82.01
2023-10-09T23:11:25.797Z,81.98
2023-10-09T23:14:31.631Z,82.00
2023-10-09T23:17:47.226Z,81.94
2023-10-09T23:20:51.087Z,81.97
2023-10-09T23:24:09.059Z,82.01
2023-10-09T23:27:26.284Z,82.03
2023-10-09T23:30:28.396Z,81.98
2023-10-09T23:33:30.668Z,81.93
2023-10-09T23:36:42.395Z,81.89
2023-10-09T23:39:53.714Z,81.84
2023-10-09T23:42:58.431Z,81.85
2023-10-09T23:53:18.360Z,81.88
2023-10-09T23:56:39.777Z,81.89
2023-10-09T23:59:51.838Z,81.97
